Time;durP1;ratioP1;P1;durP2;ratioP2;P2;SDS_P1;SDS_P2;PMS_P1;PMS_P2;Temp;Humidity;BMP_temperature;BMP_pressure;BME280_temperature;BME280_humidity;BME280_pressure;Samples;Min_cycle;Max_cycle;Signal;HPM_P1;HPM_P2
2023/09/20 00:00:08;;;;;;;0.90;0.50;;;;;;;17.95;71.79;99339.50;335160;28;5585;-64
2023/09/20 00:00:26;;;;;;;1.15;0.60;;;;;;;17.94;71.78;99343.91;337337;28;4721;-63
2023/09/20 00:00:38;;;;;;;1.15;0.57;;;;;;;17.93;72.07;99336.13;329255;28;17442;-62
2023/09/20 00:00:52;;;;;;;1.02;0.50;;;;;;;17.92;72.16;99340.53;337152;28;4865;-63
2023/09/20 00:01:04;;;;;;;0.82;0.57;;;;;;;17.91;72.08;99338.88;333789;28;18309;-63
2023/09/20 00:01:16;;;;;;;0.80;0.50;;;;;;;17.92;72.23;99337.06;337915;28;4514;-63
2023/09/20 00:01:29;;;;;;;0.60;0.50;;;;;;;17.92;72.22;99340.53;335053;28;17241;-61
2023/09/20 00:01:41;;;;;;;0.63;0.50;;;;;;;17.93;72.04;99341.41;336897;28;4694;-62
2023/09/20 00:01:53;;;;;;;0.52;0.40;;;;;;;17.91;72.01;99338.88;335985;28;18170;-62
2023/09/20 00:02:05;;;;;;;0.30;0.30;;;;;;;17.92;72.12;99339.69;338744;28;4839;-63
2023/09/20 00:02:17;;;;;;;0.30;0.30;;;;;;;17.91;72.21;99341.50;338377;28;5821;-62
2023/09/20 00:02:31;;;;;;;0.43;0.43;;;;;;;17.90;72.32;99345.06;336035;28;18039;-63
2023/09/20 00:02:45;;;;;;;0.57;0.57;;;;;;;17.89;72.28;99343.38;334509;28;13053;-63
2023/09/20 00:02:57;;;;;;;0.60;0.60;;;;;;;17.89;72.33;99338.13;337904;28;5382;-62
2023/09/20 00:03:09;;;;;;;0.50;0.50;;;;;;;17.88;72.55;99336.44;336133;28;18851;-63
2023/09/20 00:03:25;;;;;;;0.40;0.40;;;;;;;17.88;72.46;99339.06;338815;28;5617;-62
2023/09/20 00:03:38;;;;;;;0.45;0.43;;;;;;;17.87;72.51;99342.66;335483;28;18176;-63
2023/09/20 00:03:50;;;;;;;0.70;0.50;;;;;;;17.85;72.64;99339.28;334562;28;19050;-62
2023/09/20 00:04:05;;;;;;;1.10;0.55;;;;;;;17.84;72.59;99337.59;336844;28;5367;-62
2023/09/20 00:04:18;;;;;;;1.20;0.50;;;;;;;17.85;72.28;99347.16;336308;28;18234;-61
2023/09/20 00:04:30;;;;;;;0.80;0.40;;;;;;;17.83;72.58;99341.19;334139;28;18382;-63
2023/09/20 00:04:43;;;;;;;0.57;0.40;;;;;;;17.85;72.55;99339.28;337537;28;4698;-63
2023/09/20 00:05:00;;;;;;;0.50;0.47;;;;;;;17.85;72.27;99344.53;334755;28;18099;-63
2023/09/20 00:05:14;;;;;;;0.50;0.40;;;;;;;17.86;72.29;99335.69;334612;28;16229;-63
2023/09/20 00:05:27;;;;;;;0.70;0.40;;;;;;;17.85;72.52;99339.28;334256;28;19358;-62
2023/09/20 00:05:43;;;;;;;0.70;0.40;;;;;;;17.84;72.63;99342.84;333587;29;12324;-63
2023/09/20 00:05:55;;;;;;;0.50;0.50;;;;;;;17.81;72.74;99335.16;334436;28;4680;-62
2023/09/20 00:06:09;;;;;;;0.75;0.50;;;;;;;17.81;72.82;99343.03;337240;28;5504;-62
2023/09/20 00:06:21;;;;;;;0.73;0.43;;;;;;;17.78;73.10;99341.44;333270;28;18544;-62
2023/09/20 00:06:33;;;;;;;0.68;0.50;;;;;;;17.78;73.05;99348.47;336738;28;4695;-61
2023/09/20 00:06:46;;;;;;;0.68;0.50;;;;;;;17.79;73.07;99342.28;333403;28;17497;-63
2023/09/20 00:06:58;;;;;;;0.80;0.60;;;;;;;17.79;72.84;99344.94;335411;28;17454;-62
2023/09/20 00:07:10;;;;;;;0.68;0.50;;;;;;;17.80;72.79;99343.13;332211;28;5167;-64
2023/09/20 00:07:23;;;;;;;1.50;0.55;;;;;;;17.80;73.01;99335.25;334286;28;18362;-63
2023/09/20 00:07:35;;;;;;;1.70;0.52;;;;;;;17.78;73.02;99344.06;334413;28;12155;-63
2023/09/20 00:07:56;;;;;;;1.90;0.50;;;;;;;17.80;73.07;99336.06;337419;28;5180;-62
2023/09/20 00:08:08;;;;;;;1.98;0.50;;;;;;;17.80;73.24;99341.34;334049;28;16910;-62
2023/09/20 00:08:20;;;;;;;1.65;0.52;;;;;;;17.79;73.19;99342.28;334181;28;6378;-64
2023/09/20 00:08:34;;;;;;;0.60;0.50;;;;;;;17.76;73.24;99339.84;337082;28;5150;-63
2023/09/20 00:08:47;;;;;;;0.50;0.40;;;;;;;17.74;73.50;99342.59;334876;28;18722;-62
2023/09/20 00:09:02;;;;;;;0.60;0.50;;;;;;;17.75;73.42;99343.44;337563;28;5985;-62
2023/09/20 00:09:15;;;;;;;0.60;0.50;;;;;;;17.75;73.36;99344.28;333433;28;19121;-62
2023/09/20 00:09:30;;;;;;;0.67;0.47;;;;;;;17.75;73.18;99335.56;334850;28;18186;-62
2023/09/20 00:09:42;;;;;;;0.82;0.40;;;;;;;17.74;73.15;99336.50;330811;28;18071;-64
2023/09/20 00:09:54;;;;;;;0.65;0.40;;;;;;;17.74;73.33;99339.13;337305;28;5138;-62
2023/09/20 00:10:12;;;;;;;0.50;0.40;;;;;;;17.74;73.46;99344.38;335079;28;12805;-64
2023/09/20 00:10:24;;;;;;;0.63;0.47;;;;;;;17.75;73.29;99340.81;334607;28;18099;-62
2023/09/20 00:10:37;;;;;;;0.50;0.50;;;;;;;17.72;73.68;99341.00;335110;28;18391;-63
2023/09/20 00:10:49;;;;;;;0.40;0.40;;;;;;;17.68;73.59;99347.41;336910;28;4679;-63
2023/09/20 00:11:01;;;;;;;0.40;0.40;;;;;;;17.69;73.62;99333.34;337040;28;12072;-62
2023/09/20 00:11:15;;;;;;;0.50;0.50;;;;;;;17.71;73.60;99336.72;334649;28;18240;-62
2023/09/20 00:11:27;;;;;;;0.80;0.60;;;;;;;17.71;73.29;99336.72;333131;28;18091;-62
2023/09/20 00:11:40;;;;;;;2.38;0.90;;;;;;;17.72;73.13;99333.97;337859;28;4600;-64
2023/09/20 00:11:53;;;;;;;2.75;0.80;;;;;;;17.72;73.28;99333.13;334613;28;19410;-62
2023/09/20 00:12:05;;;;;;;2.10;0.60;;;;;;;17.71;73.44;99336.72;337437;28;4714;-62
2023/09/20 00:12:17;;;;;;;1.20;0.50;;;;;;;17.73;73.44;99334.81;334258;28;20759;-62
2023/09/20 00:12:29;;;;;;;0.73;0.45;;;;;;;17.72;73.41;99333.13;336832;28;4592;-62
2023/09/20 00:12:42;;;;;;;0.70;0.40;;;;;;;17.72;73.26;99333.97;337612;28;4680;-63
2023/09/20 00:12:54;;;;;;;0.90;0.57;;;;;;;17.73;73.27;99340.09;334609;28;17977;-63
2023/09/20 00:13:09;;;;;;;1.05;0.63;;;;;;;17.72;73.34;99338.38;337137;28;4660;-62
2023/09/20 00:13:21;;;;;;;0.70;0.50;;;;;;;17.72;73.45;99339.22;333992;28;18316;-62
2023/09/20 00:13:33;;;;;;;0.68;0.47;;;;;;;17.73;73.39;99335.66;333683;28;18356;-62
2023/09/20 00:13:46;;;;;;;0.47;0.40;;;;;;;17.74;73.31;99341.75;337520;28;4731;-62
2023/09/20 00:13:58;;;;;;;0.73;0.45;;;;;;;17.75;73.44;99333.75;334713;28;18307;-64
2023/09/20 00:14:11;;;;;;;1.65;0.55;;;;;;;17.77;73.41;99341.56;337517;28;4604;-63
2023/09/20 00:14:23;;;;;;;2.10;0.70;;;;;;;17.76;73.17;99334.59;331878;28;18348;-63
2023/09/20 00:14:35;;;;;;;1.80;0.75;;;;;;;17.74;73.40;99328.59;336986;28;5406;-62
2023/09/20 00:14:47;;;;;;;1.77;0.65;;;;;;;17.74;73.58;99331.22;335319;28;5194;-63
2023/09/20 00:14:59;;;;;;;0.90;0.50;;;;;;;17.74;73.60;99331.22;337318;28;4608;-63
2023/09/20 00:15:12;;;;;;;0.80;0.50;;;;;;;17.71;73.44;99337.56;337743;28;5407;-62
2023/09/20 00:15:24;;;;;;;0.60;0.50;;;;;;;17.72;73.51;99333.13;334946;28;18484;-63
2023/09/20 00:15:37;;;;;;;0.40;0.40;;;;;;;17.72;73.51;99333.13;331523;28;5597;-62
2023/09/20 00:15:54;;;;;;;1.30;0.40;;;;;;;17.73;73.56;99338.28;335684;28;17417;-61
2023/09/20 00:16:09;;;;;;;1.80;0.50;;;;;;;17.75;73.47;99332.94;335688;28;17701;-62
2023/09/20 00:16:22;;;;;;;0.80;0.40;;;;;;;17.74;73.39;99337.31;336113;28;18359;-62
2023/09/20 00:16:34;;;;;;;0.43;0.40;;;;;;;17.75;73.48;99332.94;335080;28;15525;-62
2023/09/20 00:16:46;;;;;;;1.40;0.45;;;;;;;17.76;73.42;99329.34;337852;28;4549;-62
2023/09/20 00:17:00;;;;;;;1.30;0.40;;;;;;;17.76;73.49;99334.59;337757;28;17878;-63
2023/09/20 00:17:12;;;;;;;0.60;0.45;;;;;;;17.76;73.36;99334.59;331280;28;18072;-63
2023/09/20 00:17:24;;;;;;;1.10;0.60;;;;;;;17.77;73.22;99331.03;335457;28;12036;-64
2023/09/20 00:17:37;;;;;;;1.02;0.70;;;;;;;17.77;73.32;99331.03;338825;28;5480;-63
2023/09/20 00:17:50;;;;;;;1.10;0.73;;;;;;;17.77;73.40;99331.03;334875;28;18119;-62
2023/09/20 00:18:02;;;;;;;1.05;0.65;;;;;;;17.76;73.41;99334.59;337561;28;4698;-63
2023/09/20 00:18:14;;;;;;;0.80;0.50;;;;;;;17.75;73.48;99331.13;335030;28;12175;-64
2023/09/20 00:18:26;;;;;;;0.52;0.45;;;;;;;17.76;73.54;99331.97;337235;28;5194;-63
2023/09/20 00:18:39;;;;;;;0.43;0.43;;;;;;;17.75;73.14;99327.69;336390;28;4727;-63
2023/09/20 00:18:51;;;;;;;0.50;0.50;;;;;;;17.75;73.14;99327.69;333273;28;18273;-62
2023/09/20 00:19:03;;;;;;;0.65;0.57;;;;;;;17.73;73.15;99321.69;336956;28;4740;-63
2023/09/20 00:19:15;;;;;;;1.42;0.70;;;;;;;17.74;73.31;99325.97;333493;28;16428;-63
2023/09/20 00:19:27;;;;;;;1.45;0.63;;;;;;;17.77;73.20;99331.03;337554;28;4771;-62
2023/09/20 00:19:42;;;;;;;0.45;0.43;;;;;;;17.76;73.21;99326.72;336689;28;4833;-62
2023/09/20 00:19:54;;;;;;;0.70;0.60;;;;;;;17.76;73.17;99329.34;334587;28;17709;-63
2023/09/20 00:20:13;;;;;;;0.60;0.50;;;;;;;17.77;73.19;99331.03;329825;28;18732;-64
2023/09/20 00:20:25;;;;;;;0.38;0.32;;;;;;;17.75;73.26;99330.31;333832;28;17827;-62
2023/09/20 00:20:39;;;;;;;0.73;0.40;;;;;;;17.74;73.25;99325.97;336616;28;4689;-62
2023/09/20 00:20:51;;;;;;;0.77;0.43;;;;;;;17.73;73.27;99324.31;334741;28;19095;-62
2023/09/20 00:21:04;;;;;;;0.70;0.40;;;;;;;17.73;73.11;99325.16;336825;28;4551;-61
2023/09/20 00:21:16;;;;;;;0.50;0.40;;;;;;;17.74;73.11;99331.22;334245;28;18244;-62
2023/09/20 00:21:27;;;;;;;0.40;0.38;;;;;;;17.74;73.02;99331.22;337287;28;4638;-62
2023/09/20 00:21:39;;;;;;;0.77;0.43;;;;;;;17.72;73.12;99327.88;337481;28;4814;-63
2023/09/20 00:21:51;;;;;;;1.30;0.50;;;;;;;17.72;72.85;99327.88;334369;28;4883;-62
2023/09/20 00:22:05;;;;;;;1.30;0.60;;;;;;;17.70;73.04;99319.25;337220;28;5197;-61
2023/09/20 00:22:17;;;;;;;0.60;0.50;;;;;;;17.71;72.98;99320.94;335095;28;5446;-64
2023/09/20 00:22:29;;;;;;;0.57;0.40;;;;;;;17.72;73.15;99331.34;337753;28;5131;-62
2023/09/20 00:22:44;;;;;;;0.40;0.30;;;;;;;17.73;73.23;99329.56;336666;28;5538;-63
2023/09/20 00:22:56;;;;;;;0.60;0.40;;;;;;;17.74;73.09;99326.81;335849;28;17421;-64
2023/09/20 00:23:09;;;;;;;0.75;0.40;;;;;;;17.74;72.92;99325.97;336447;28;4731;-62
2023/09/20 00:23:21;;;;;;;0.50;0.40;;;;;;;17.72;73.20;99323.44;335320;28;12122;-64
2023/09/20 00:23:33;;;;;;;0.38;0.38;;;;;;;17.69;73.33;99328.09;337544;28;4681;-62
2023/09/20 00:23:45;;;;;;;0.40;0.40;;;;;;;17.69;73.35;99325.47;337381;28;4684;-62
2023/09/20 00:23:57;;;;;;;0.40;0.40;;;;;;;17.67;73.48;99317.66;334169;28;18199;-62
2023/09/20 00:24:09;;;;;;;0.40;0.40;;;;;;;17.63;73.51;99326.72;337506;28;6098;-62
2023/09/20 00:24:21;;;;;;;1.13;0.52;;;;;;;17.57;73.77;99320.06;336872;28;18286;-63
2023/09/20 00:24:33;;;;;;;1.33;0.60;;;;;;;17.53;73.87;99321.22;334505;28;19399;-63
2023/09/20 00:24:46;;;;;;;0.90;0.50;;;;;;;17.50;74.25;99318.78;331985;28;4703;-62
2023/09/20 00:24:59;;;;;;;0.63;0.40;;;;;;;17.49;74.04;99321.53;334996;28;4693;-62
2023/09/20 00:25:13;;;;;;;0.75;0.43;;;;;;;17.48;74.44;99325.94;336415;28;5228;-62
2023/09/20 00:25:27;;;;;;;0.60;0.40;;;;;;;17.47;74.21;99324.25;334468;28;18560;-63
2023/09/20 00:25:39;;;;;;;1.55;0.50;;;;;;;17.49;74.16;99325.00;333836;28;18210;-62
2023/09/20 00:25:51;;;;;;;1.60;0.50;;;;;;;17.48;74.16;99320.66;337336;28;4680;-63
2023/09/20 00:26:03;;;;;;;1.55;0.50;;;;;;;17.49;74.42;99318.91;333783;28;18463;-61
2023/09/20 00:26:18;;;;;;;0.50;0.50;;;;;;;17.48;74.34;99319.84;337428;28;5617;-62
2023/09/20 00:26:30;;;;;;;0.60;0.50;;;;;;;17.48;74.39;99325.09;335207;28;17915;-62
2023/09/20 00:26:42;;;;;;;0.70;0.50;;;;;;;17.45;74.61;99325.31;335097;28;18438;-63
2023/09/20 00:26:55;;;;;;;0.80;0.45;;;;;;;17.45;74.52;99326.16;337621;28;4684;-63
2023/09/20 00:27:08;;;;;;;1.10;0.45;;;;;;;17.46;74.61;99325.19;334393;28;12825;-62
2023/09/20 00:27:20;;;;;;;1.02;0.50;;;;;;;17.46;74.49;99321.72;336317;28;5042;-63
2023/09/20 00:27:33;;;;;;;0.90;0.40;;;;;;;17.46;74.54;99322.56;337671;28;4912;-62
2023/09/20 00:27:45;;;;;;;0.47;0.45;;;;;;;17.47;74.48;99319.00;334466;28;18195;-62
2023/09/20 00:27:57;;;;;;;0.60;0.50;;;;;;;17.47;74.49;99324.25;337300;28;4769;-63
2023/09/20 00:28:11;;;;;;;0.50;0.50;;;;;;;17.48;74.54;99331.19;334384;28;18154;-62
2023/09/20 00:28:23;;;;;;;0.75;0.50;;;;;;;17.47;74.60;99326.88;334057;28;12792;-64
2023/09/20 00:28:35;;;;;;;0.70;0.52;;;;;;;17.48;74.50;99325.94;337421;28;5459;-62
2023/09/20 00:28:48;;;;;;;0.40;0.40;;;;;;;17.49;74.24;99327.63;337542;28;4698;-63
2023/09/20 00:29:07;;;;;;;0.60;0.55;;;;;;;17.49;74.23;99322.38;334633;28;18226;-63
2023/09/20 00:29:19;;;;;;;0.80;0.60;;;;;;;17.48;74.56;99325.94;332192;28;17993;-63
2023/09/20 00:29:31;;;;;;;0.55;0.40;;;;;;;17.48;74.51;99320.66;336094;28;4573;-62
2023/09/20 00:29:43;;;;;;;1.80;0.40;;;;;;;17.48;74.47;99320.66;336731;28;4757;-62
2023/09/20 00:29:55;;;;;;;2.00;0.40;;;;;;;17.49;74.30;99324.16;335216;28;18225;-63
2023/09/20 00:30:10;;;;;;;1.67;0.45;;;;;;;17.49;74.23;99322.38;337030;28;4656;-62
2023/09/20 00:30:22;;;;;;;0.45;0.40;;;;;;;17.50;74.18;99334.56;334895;28;18481;-62
2023/09/20 00:30:34;;;;;;;0.80;0.40;;;;;;;17.51;74.24;99330.16;334761;28;5531;-64
2023/09/20 00:30:47;;;;;;;0.82;0.40;;;;;;;17.52;74.11;99319.53;337103;28;6009;-63
2023/09/20 00:31:00;;;;;;;0.50;0.50;;;;;;;17.52;74.24;99321.31;334820;28;18067;-62
2023/09/20 00:31:12;;;;;;;0.50;0.43;;;;;;;17.51;74.27;99323.13;337434;28;4672;-63
2023/09/20 00:31:24;;;;;;;0.40;0.40;;;;;;;17.50;74.45;99329.28;335008;28;18051;-63
2023/09/20 00:31:37;;;;;;;0.47;0.43;;;;;;;17.50;74.40;99328.47;337653;28;5557;-63
2023/09/20 00:31:50;;;;;;;0.63;0.50;;;;;;;17.51;74.41;99320.47;336030;28;18984;-62
2023/09/20 00:32:02;;;;;;;0.68;0.40;;;;;;;17.50;74.15;99324.03;334195;28;18270;-62
2023/09/20 00:32:14;;;;;;;1.08;0.45;;;;;;;17.50;74.25;99324.03;332863;28;4688;-62
2023/09/20 00:32:26;;;;;;;0.90;0.40;;;;;;;17.47;74.74;99329.50;335492;28;4680;-62
2023/09/20 00:32:41;;;;;;;0.43;0.40;;;;;;;17.48;74.70;99320.66;337869;28;5137;-63
2023/09/20 00:32:53;;;;;;;0.50;0.40;;;;;;;17.48;74.82;99325.94;332798;28;16548;-62
2023/09/20 00:33:05;;;;;;;0.60;0.40;;;;;;;17.49;74.66;99322.38;335194;28;4707;-64
2023/09/20 00:33:17;;;;;;;1.02;0.45;;;;;;;17.50;74.75;99318.78;337597;28;5378;-62
2023/09/20 00:33:29;;;;;;;0.80;0.38;;;;;;;17.49;74.48;99321.53;331998;28;5888;-63
2023/09/20 00:33:43;;;;;;;0.75;0.40;;;;;;;17.50;74.13;99318.78;334883;28;18078;-62
2023/09/20 00:33:56;;;;;;;0.77;0.50;;;;;;;17.47;74.64;99321.63;335893;28;12222;-64
2023/09/20 00:34:08;;;;;;;0.73;0.50;;;;;;;17.47;74.79;99319.00;335113;28;13986;-63
2023/09/20 00:34:20;;;;;;;0.63;0.50;;;;;;;17.47;74.64;99321.63;335465;28;12058;-64
2023/09/20 00:34:32;;;;;;;0.40;0.40;;;;;;;17.46;74.56;99322.56;337596;28;4576;-63
2023/09/20 00:34:44;;;;;;;0.57;0.40;;;;;;;17.44;74.73;99319.19;336507;28;4734;-64
2023/09/20 00:34:56;;;;;;;0.93;0.50;;;;;;;17.43;74.62;99328.03;333623;28;4964;-64
2023/09/20 00:35:13;;;;;;;1.15;0.52;;;;;;;17.44;74.66;99315.72;332217;28;17714;-63
2023/09/20 00:35:25;;;;;;;1.20;0.50;;;;;;;17.43;74.55;99317.53;335074;28;17272;-63
2023/09/20 00:35:40;;;;;;;1.08;0.57;;;;;;;17.44;74.56;99321.00;335167;28;18380;-64
2023/09/20 00:35:52;;;;;;;0.47;0.47;;;;;;;17.45;74.68;99320.06;333888;28;17884;-63
2023/09/20 00:36:04;;;;;;;0.40;0.40;;;;;;;17.45;74.60;99322.69;337314;28;4801;-63
2023/09/20 00:36:20;;;;;;;0.60;0.60;;;;;;;17.43;74.47;99317.53;334324;28;18226;-63
2023/09/20 00:36:31;;;;;;;0.82;0.60;;;;;;;17.42;74.54;99321.09;337089;28;5432;-63
2023/09/20 00:36:44;;;;;;;0.80;0.40;;;;;;;17.40;74.49;99315.09;330519;28;18282;-63
2023/09/20 00:36:56;;;;;;;0.85;0.40;;;;;;;17.41;74.47;99318.59;336964;28;4610;-63
2023/09/20 00:37:08;;;;;;;0.90;0.40;;;;;;;17.40;74.59;99315.09;334336;28;16732;-63
2023/09/20 00:37:20;;;;;;;1.63;0.55;;;;;;;17.41;74.50;99322.03;337845;28;4664;-63
2023/09/20 00:37:33;;;;;;;1.50;0.52;;;;;;;17.42;74.57;99315.00;335279;28;18397;-64
2023/09/20 00:37:46;;;;;;;0.95;0.52;;;;;;;17.41;74.71;99319.41;337554;28;4657;-63
2023/09/20 00:37:58;;;;;;;1.40;0.60;;;;;;;17.41;74.65;99315.94;333686;28;5246;-64
2023/09/20 00:38:10;;;;;;;1.40;0.57;;;;;;;17.41;74.66;99314.16;337001;28;4628;-64
2023/09/20 00:38:24;;;;;;;0.60;0.50;;;;;;;17.40;74.60;99309.84;335139;28;12107;-63
2023/09/20 00:38:36;;;;;;;0.80;0.50;;;;;;;17.39;74.24;99313.41;337722;28;4878;-63
2023/09/20 00:38:48;;;;;;;0.68;0.47;;;;;;;17.37;74.21;99307.44;335081;28;18349;-62
2023/09/20 00:39:00;;;;;;;0.68;0.50;;;;;;;17.39;74.26;99321.31;337934;28;4828;-63
2023/09/20 00:39:14;;;;;;;0.50;0.50;;;;;;;17.38;74.26;99314.34;335043;28;14487;-63
2023/09/20 00:39:26;;;;;;;0.55;0.50;;;;;;;17.38;74.19;99309.09;338767;28;6803;-63
2023/09/20 00:39:38;;;;;;;0.55;0.50;;;;;;;17.38;74.41;99309.09;330405;28;13082;-64
2023/09/20 00:39:50;;;;;;;0.65;0.50;;;;;;;17.41;74.35;99313.31;336781;28;5199;-62
2023/09/20 00:40:03;;;;;;;0.85;0.50;;;;;;;17.42;74.46;99315.81;338417;28;4607;-62
2023/09/20 00:40:16;;;;;;;0.82;0.47;;;;;;;17.43;74.34;99306.19;330602;28;19378;-63
2023/09/20 00:40:28;;;;;;;0.52;0.40;;;;;;;17.42;74.25;99305.31;335058;28;11905;-64
2023/09/20 00:40:40;;;;;;;0.55;0.40;;;;;;;17.43;74.30;99307.00;338446;28;4704;-63
2023/09/20 00:40:53;;;;;;;0.63;0.40;;;;;;;17.43;74.14;99307.00;337625;28;4954;-63
2023/09/20 00:41:08;;;;;;;0.60;0.40;;;;;;;17.42;74.27;99315.81;335459;28;12069;-63
2023/09/20 00:41:21;;;;;;;0.50;0.40;;;;;;;17.42;74.28;99309.75;333609;28;18043;-64
2023/09/20 00:41:33;;;;;;;0.68;0.50;;;;;;;17.42;74.27;99307.94;334529;28;11609;-63
2023/09/20 00:41:47;;;;;;;0.50;0.50;;;;;;;17.41;74.38;99308.91;337255;28;4908;-64
2023/09/20 00:42:00;;;;;;;0.50;0.40;;;;;;;17.41;74.50;99308.06;334402;28;18048;-64
2023/09/20 00:42:12;;;;;;;1.20;0.43;;;;;;;17.40;74.76;99307.19;337400;28;5605;-63
2023/09/20 00:42:24;;;;;;;1.38;0.60;;;;;;;17.40;74.63;99309.84;334867;28;5336;-64
2023/09/20 00:42:36;;;;;;;0.77;0.60;;;;;;;17.40;74.56;99312.47;332909;28;5254;-63
2023/09/20 00:42:50;;;;;;;0.60;0.60;;;;;;;17.41;74.25;99308.91;336804;28;4606;-63
2023/09/20 00:43:07;;;;;;;0.50;0.40;;;;;;;17.41;74.54;99311.53;333464;28;18929;-64
2023/09/20 00:43:23;;;;;;;0.55;0.40;;;;;;;17.39;74.86;99316.03;335260;28;17844;-64
2023/09/20 00:43:35;;;;;;;0.57;0.50;;;;;;;17.39;74.78;99304.69;333954;28;17752;-62
2023/09/20 00:43:47;;;;;;;0.63;0.50;;;;;;;17.38;74.77;99309.09;337164;28;4629;-63
2023/09/20 00:44:00;;;;;;;0.77;0.47;;;;;;;17.38;74.56;99306.47;334306;28;5208;-63
2023/09/20 00:44:12;;;;;;;0.70;0.50;;;;;;;17.38;74.58;99311.72;337540;28;4672;-64
2023/09/20 00:44:25;;;;;;;0.70;0.52;;;;;;;17.36;74.65;99305.72;335234;28;18239;-63
2023/09/20 00:44:38;;;;;;;0.55;0.50;;;;;;;17.36;74.42;99308.34;337270;28;4708;-63
2023/09/20 00:44:51;;;;;;;0.43;0.43;;;;;;;17.37;74.29;99312.69;335197;28;8404;-63
2023/09/20 00:45:04;;;;;;;0.60;0.40;;;;;;;17.36;74.67;99305.72;337797;28;5231;-64
2023/09/20 00:45:18;;;;;;;0.80;0.40;;;;;;;17.37;74.57;99312.69;335255;28;18554;-63
2023/09/20 00:45:30;;;;;;;0.82;0.50;;;;;;;17.37;74.75;99310.88;330892;28;4809;-64
2023/09/20 00:45:42;;;;;;;0.32;0.32;;;;;;;17.39;74.66;99310.78;336738;28;4881;-64
2023/09/20 00:45:54;;;;;;;0.35;0.30;;;;;;;17.38;74.59;99309.09;337484;28;4703;-63
2023/09/20 00:46:09;;;;;;;1.20;0.40;;;;;;;17.36;74.47;99306.59;334974;28;18310;-63
2023/09/20 00:46:21;;;;;;;1.40;0.60;;;;;;;17.36;74.50;99310.97;333821;28;17666;-63
2023/09/20 00:46:34;;;;;;;0.70;0.60;;;;;;;17.36;74.35;99308.34;335968;28;4801;-64
2023/09/20 00:46:46;;;;;;;1.73;0.57;;;;;;;17.36;74.32;99305.72;329802;28;17651;-64
2023/09/20 00:46:58;;;;;;;2.90;0.52;;;;;;;17.36;74.42;99305.72;337379;28;4748;-62
2023/09/20 00:47:11;;;;;;;2.53;0.50;;;;;;;17.36;74.62;99303.09;335274;28;18404;-63
2023/09/20 00:47:26;;;;;;;1.95;0.50;;;;;;;17.35;74.42;99309.31;337321;28;4672;-63
2023/09/20 00:47:41;;;;;;;0.43;0.43;;;;;;;17.33;74.35;99303.31;334884;28;18986;-63
2023/09/20 00:47:56;;;;;;;0.50;0.50;;;;;;;17.34;74.30;99302.34;333888;28;18975;-64
2023/09/20 00:48:12;;;;;;;0.40;0.40;;;;;;;17.34;74.33;99303.22;334244;28;17951;-64
2023/09/20 00:48:25;;;;;;;0.65;0.47;;;;;;;17.33;74.09;99305.94;334192;28;17665;-64
2023/09/20 00:48:39;;;;;;;0.70;0.50;;;;;;;17.33;74.23;99305.94;334808;28;15409;-63
2023/09/20 00:48:53;;;;;;;0.45;0.40;;;;;;;17.33;74.34;99311.19;334662;28;18066;-63
2023/09/20 00:49:06;;;;;;;1.13;0.50;;;;;;;17.32;74.60;99304.25;336739;28;4684;-63
2023/09/20 00:49:20;;;;;;;0.90;0.50;;;;;;;17.32;74.53;99309.50;333498;28;17724;-63
2023/09/20 00:49:34;;;;;;;0.40;0.40;;;;;;;17.32;74.53;99302.44;334957;28;18062;-64
2023/09/20 00:49:46;;;;;;;0.80;0.50;;;;;;;17.31;74.62;99308.66;337129;28;12234;-63
2023/09/20 00:49:59;;;;;;;0.80;0.50;;;;;;;17.32;74.39;99306.88;329979;28;18739;-64
2023/09/20 00:50:12;;;;;;;0.68;0.60;;;;;;;17.30;74.43;99306.13;336886;28;4679;-64
2023/09/20 00:50:28;;;;;;;0.80;0.65;;;;;;;17.31;74.59;99306.03;334415;28;18548;-64
2023/09/20 00:50:42;;;;;;;0.68;0.50;;;;;;;17.31;74.51;99310.47;333925;29;16307;-63
2023/09/20 00:50:54;;;;;;;1.08;0.50;;;;;;;17.31;74.35;99313.09;334278;28;17023;-62
2023/09/20 00:51:06;;;;;;;1.30;0.65;;;;;;;17.30;74.57;99308.75;336700;28;4529;-62
2023/09/20 00:51:21;;;;;;;1.05;0.63;;;;;;;17.32;74.57;99299.00;333493;29;17901;-64
2023/09/20 00:51:34;;;;;;;0.50;0.50;;;;;;;17.32;74.45;99304.25;334298;28;18890;-64
2023/09/20 00:51:48;;;;;;;1.90;0.40;;;;;;;17.31;74.55;99306.03;337304;28;5442;-62
2023/09/20 00:52:03;;;;;;;2.67;0.50;;;;;;;17.31;74.46;99313.09;334648;28;17024;-64
2023/09/20 00:52:15;;;;;;;1.30;0.60;;;;;;;17.32;74.45;99307.72;331348;28;16814;-64
2023/09/20 00:52:28;;;;;;;0.60;0.50;;;;;;;17.31;74.72;99310.47;335104;28;12059;-64
2023/09/20 00:52:41;;;;;;;0.47;0.40;;;;;;;17.31;74.63;99308.66;337382;28;4781;-63
2023/09/20 00:52:55;;;;;;;0.50;0.40;;;;;;;17.30;74.77;99306.97;336295;28;18709;-62
2023/09/20 00:53:12;;;;;;;0.85;0.50;;;;;;;17.30;74.87;99300.88;335113;28;19152;-63
2023/09/20 00:53:25;;;;;;;1.10;0.52;;;;;;;17.29;74.74;99301.84;334540;28;17749;-62
2023/09/20 00:53:38;;;;;;;1.00;0.60;;;;;;;17.28;74.79;99302.75;337800;28;5519;-63
2023/09/20 00:53:53;;;;;;;0.95;0.60;;;;;;;17.28;75.06;99302.75;335078;28;18072;-62
2023/09/20 00:54:05;;;;;;;0.65;0.43;;;;;;;17.28;74.49;99302.75;334599;28;18923;-63
2023/09/20 00:54:17;;;;;;;0.43;0.43;;;;;;;17.29;74.41;99299.22;336743;28;4742;-64
2023/09/20 00:54:30;;;;;;;0.98;0.47;;;;;;;17.30;74.51;99306.13;333825;28;17801;-63
2023/09/20 00:54:42;;;;;;;3.13;0.55;;;;;;;17.29;74.56;99304.47;337843;28;4544;-63
2023/09/20 00:54:57;;;;;;;3.90;0.70;;;;;;;17.28;74.50;99303.59;334300;28;18151;-62
2023/09/20 00:55:15;;;;;;;3.50;0.70;;;;;;;17.28;74.81;99308.03;334879;28;17932;-63
2023/09/20 00:55:30;;;;;;;1.27;0.57;;;;;;;17.28;74.56;99302.75;334594;28;17780;-64
2023/09/20 00:55:42;;;;;;;0.65;0.50;;;;;;;17.28;74.74;99305.38;334270;28;18194;-63
2023/09/20 00:55:55;;;;;;;0.55;0.55;;;;;;;17.29;74.56;99309.72;329541;28;16195;-64
2023/09/20 00:56:09;;;;;;;0.63;0.60;;;;;;;17.29;74.56;99304.47;336892;28;5924;-62
2023/09/20 00:56:22;;;;;;;0.90;0.70;;;;;;;17.29;74.79;99301.84;333689;28;18236;-64
2023/09/20 00:56:34;;;;;;;1.27;0.60;;;;;;;17.28;74.65;99305.38;334410;28;19156;-64
2023/09/20 00:56:47;;;;;;;1.70;0.60;;;;;;;17.27;74.76;99306.34;337791;28;4692;-63
2023/09/20 00:56:59;;;;;;;1.20;0.50;;;;;;;17.25;74.85;99298.56;337101;28;4731;-64
2023/09/20 00:57:11;;;;;;;1.02;0.50;;;;;;;17.25;74.88;99297.72;334080;28;17917;-63
2023/09/20 00:57:25;;;;;;;0.60;0.45;;;;;;;17.24;74.91;99302.13;337005;28;4696;-63
2023/09/20 00:57:38;;;;;;;0.85;0.50;;;;;;;17.23;75.07;99300.44;335296;28;17155;-63
2023/09/20 00:57:53;;;;;;;0.75;0.50;;;;;;;17.22;75.01;99292.66;334805;28;18948;-63
2023/09/20 00:58:09;;;;;;;0.68;0.45;;;;;;;17.24;74.85;99301.28;333446;28;10763;-63
2023/09/20 00:58:23;;;;;;;0.60;0.50;;;;;;;17.24;74.68;99303.91;333499;29;17358;-63
2023/09/20 00:58:35;;;;;;;1.70;0.47;;;;;;;17.23;74.81;99299.63;334137;28;5515;-63
2023/09/20 00:58:49;;;;;;;2.00;0.50;;;;;;;17.21;74.60;99301.50;332834;28;5817;-64
2023/09/20 00:59:07;;;;;;;1.83;0.50;;;;;;;17.22;74.56;99303.16;333531;28;18010;-64
2023/09/20 00:59:21;;;;;;;0.50;0.40;;;;;;;17.23;74.54;99299.63;333630;29;17632;-63
2023/09/20 00:59:35;;;;;;;0.57;0.50;;;;;;;17.22;74.63;99303.16;333670;28;18301;-64
2023/09/20 00:59:47;;;;;;;0.77;0.50;;;;;;;17.23;74.63;99302.25;333660;29;18054;-63
2023/09/20 00:59:59;;;;;;;0.75;0.52;;;;;;;17.24;74.28;99307.38;336164;28;4727;-63
2023/09/20 01:00:27;;;;;;;0.80;0.50;;;;;;;17.24;74.52;99301.28;335832;28;18172;-64
2023/09/20 01:00:43;;;;;;;0.60;0.50;;;;;;;17.25;74.41;99305.59;334574;28;17487;-63
2023/09/20 01:00:56;;;;;;;0.50;0.50;;;;;;;17.24;74.54;99311.78;335307;28;18984;-63
2023/09/20 01:01:09;;;;;;;0.63;0.52;;;;;;;17.22;74.62;99300.53;336150;28;17830;-64
2023/09/20 01:01:22;;;;;;;0.63;0.55;;;;;;;17.20;74.65;99305.06;334676;28;18384;-62
2023/09/20 01:01:35;;;;;;;0.77;0.60;;;;;;;17.21;74.72;99296.25;337042;28;5191;-64
2023/09/20 01:01:48;;;;;;;0.77;0.50;;;;;;;17.20;74.55;99299.81;334274;28;15666;-62
2023/09/20 01:02:01;;;;;;;1.17;0.55;;;;;;;17.21;74.58;99296.25;332296;28;4736;-62
2023/09/20 01:02:14;;;;;;;1.02;0.57;;;;;;;17.21;74.80;99307.59;334679;28;18065;-63
2023/09/20 01:02:27;;;;;;;0.90;0.50;;;;;;;17.21;74.74;99301.50;337058;28;4557;-62
2023/09/20 01:02:40;;;;;;;0.98;0.47;;;;;;;17.21;74.99;99304.13;331829;28;18178;-63
2023/09/20 01:02:54;;;;;;;0.65;0.55;;;;;;;17.21;74.86;99291.00;334016;28;17276;-63